Time;durP1;ratioP1;P1;durP2;ratioP2;P2;SDS_P1;SDS_P2;PMS_P1;PMS_P2;Temp;Humidity;BMP_temperature;BMP_pressure;BME280_temperature;BME280_humidity;BME280_pressure;Samples;Min_cycle;Max_cycle;Signal;HPM_P1;HPM_P2
2023/08/02 00:02:12;;;;;;;7.70;3.63;;;21.90;72.90;;;;;;4994441;28;20034;-47
2023/08/02 00:04:38;;;;;;;11.48;3.83;;;21.90;72.90;;;;;;4993111;28;20036;-44
2023/08/02 00:07:04;;;;;;;10.40;3.70;;;22.00;73.30;;;;;;4994316;28;20038;-50
2023/08/02 00:09:31;;;;;;;8.07;3.55;;;22.00;73.40;;;;;;4994377;28;20058;-49
2023/08/02 00:11:57;;;;;;;6.07;3.20;;;22.00;73.30;;;;;;4994432;28;20023;-46
2023/08/02 00:14:23;;;;;;;7.93;3.40;;;21.90;73.00;;;;;;4994239;28;20034;-53
2023/08/02 00:16:49;;;;;;;7.78;3.00;;;21.90;73.00;;;;;;4993809;28;20076;-51
2023/08/02 00:19:15;;;;;;;9.02;3.50;;;22.00;73.20;;;;;;4976814;28;20061;-51
2023/08/02 00:21:41;;;;;;;6.47;3.25;;;22.00;73.20;;;;;;4994024;28;20516;-45
2023/08/02 00:24:07;;;;;;;8.50;3.22;;;21.90;72.80;;;;;;4994150;28;20502;-51
2023/08/02 00:26:33;;;;;;;8.95;3.15;;;22.00;72.70;;;;;;4993762;28;20038;-49
2023/08/02 00:28:59;;;;;;;6.05;2.83;;;21.90;72.90;;;;;;4990732;28;20430;-48
2023/08/02 00:31:25;;;;;;;8.50;3.53;;;22.00;73.10;;;;;;4992699;28;20026;-45
2023/08/02 00:33:51;;;;;;;9.13;3.30;;;22.00;73.50;;;;;;4992834;28;20023;-43
2023/08/02 00:36:17;;;;;;;8.88;2.90;;;21.90;73.10;;;;;;4993584;28;20030;-44
2023/08/02 00:38:43;;;;;;;5.97;2.88;;;22.00;73.20;;;;;;4993727;28;20061;-45
2023/08/02 00:41:10;;;;;;;7.35;3.40;;;21.90;73.00;;;;;;4993763;28;20057;-45
2023/08/02 00:43:39;;;;;;;4.78;3.03;;;21.90;72.90;;;;;;4992602;28;20026;-46
2023/08/02 00:46:10;;;;;;;7.07;2.92;;;21.90;72.90;;;;;;5024967;28;20038;-43
2023/08/02 00:48:37;;;;;;;5.80;2.90;;;21.90;73.30;;;;;;5025300;28;20037;-43
2023/08/02 00:51:03;;;;;;;6.40;2.75;;;21.90;72.90;;;;;;4993633;28;20398;-43
2023/08/02 00:53:30;;;;;;;4.68;3.00;;;21.90;72.70;;;;;;4993557;28;20106;-42
2023/08/02 00:55:57;;;;;;;6.90;3.25;;;21.90;72.70;;;;;;4993288;28;20027;-44
2023/08/02 00:58:24;;;;;;;7.70;3.00;;;21.90;72.90;;;;;;5024943;28;20038;-47
2023/08/02 01:00:49;;;;;;;6.10;3.00;;;21.90;72.60;;;;;;4992163;28;20027;-43
2023/08/02 01:03:15;;;;;;;6.68;2.97;;;21.90;72.50;;;;;;4993332;28;20028;-43
2023/08/02 01:05:48;;;;;;;7.85;3.10;;;21.90;72.70;;;;;;4993041;28;20035;-42
2023/08/02 01:08:21;;;;;;;5.60;3.10;;;21.90;72.60;;;;;;4993173;28;20030;-42
2023/08/02 01:11:15;;;;;;;6.80;2.90;;;21.90;72.50;;;;;;4993299;28;20022;-42
2023/08/02 01:13:49;;;;;;;4.68;2.88;;;21.90;72.80;;;;;;4991976;28;20064;-44
2023/08/02 01:16:16;;;;;;;5.88;2.75;;;21.90;72.80;;;;;;5024202;28;20030;-42
2023/08/02 01:18:42;;;;;;;6.93;3.20;;;21.90;72.60;;;;;;4991743;28;20057;-43
2023/08/02 01:21:08;;;;;;;6.43;2.70;;;21.90;72.60;;;;;;4991732;28;20038;-43
2023/08/02 01:23:34;;;;;;;4.55;2.90;;;21.90;72.90;;;;;;4992897;28;20080;-44
2023/08/02 01:26:02;;;;;;;6.47;3.15;;;21.90;72.60;;;;;;4992827;28;20031;-46
2023/08/02 01:28:35;;;;;;;5.15;2.92;;;21.90;72.90;;;;;;4991610;28;20417;-44
2023/08/02 01:31:03;;;;;;;6.78;2.83;;;21.90;72.60;;;;;;4993017;28;20022;-43
2023/08/02 01:33:37;;;;;;;6.22;2.97;;;21.90;72.70;;;;;;4992888;28;20030;-43
2023/08/02 01:36:04;;;;;;;6.20;2.58;;;21.90;72.60;;;;;;5023884;28;20101;-43
2023/08/02 01:38:30;;;;;;;6.47;2.72;;;21.90;72.80;;;;;;4992682;28;20481;-43
2023/08/02 01:40:56;;;;;;;3.97;2.50;;;21.90;72.20;;;;;;4992723;28;20040;-44
2023/08/02 01:43:22;;;;;;;5.38;2.80;;;21.90;72.40;;;;;;4992694;28;20105;-43
2023/08/02 01:45:47;;;;;;;5.20;2.80;;;21.90;72.20;;;;;;4991202;28;20153;-45
2023/08/02 01:48:13;;;;;;;5.93;2.72;;;21.90;72.20;;;;;;4992442;28;20547;-43
2023/08/02 01:50:40;;;;;;;6.15;2.97;;;21.90;72.60;;;;;;4992996;28;20025;-44
2023/08/02 01:53:06;;;;;;;7.50;2.88;;;21.90;72.80;;;;;;4992697;28;20037;-45
2023/08/02 01:55:31;;;;;;;7.43;2.72;;;21.90;72.40;;;;;;4992234;28;20465;-42
2023/08/02 01:57:57;;;;;;;4.32;2.55;;;21.90;72.60;;;;;;4992375;28;20034;-44
2023/08/02 02:00:23;;;;;;;5.53;2.78;;;21.90;72.40;;;;;;4991344;28;20027;-43
2023/08/02 02:02:49;;;;;;;7.30;2.90;;;21.90;72.50;;;;;;4991218;28;20452;-43
2023/08/02 02:05:15;;;;;;;7.95;2.65;;;21.90;72.80;;;;;;4990762;28;20038;-46
2023/08/02 02:07:40;;;;;;;5.07;2.72;;;21.90;72.70;;;;;;4991002;28;20038;-45
2023/08/02 02:10:06;;;;;;;5.20;2.30;;;21.90;72.40;;;;;;4991130;28;20023;-42
2023/08/02 02:12:32;;;;;;;5.80;2.65;;;21.90;72.60;;;;;;4992402;28;20052;-42
2023/08/02 02:14:58;;;;;;;7.82;2.78;;;21.90;72.50;;;;;;4992012;28;20739;-44
2023/08/02 02:17:24;;;;;;;6.82;2.75;;;21.90;72.50;;;;;;4992105;28;20445;-42
2023/08/02 02:19:50;;;;;;;6.35;2.58;;;21.90;72.70;;;;;;4992063;28;20032;-46
2023/08/02 02:22:16;;;;;;;5.60;2.55;;;21.90;72.30;;;;;;4992194;28;20022;-43
2023/08/02 02:24:41;;;;;;;6.10;2.58;;;21.90;72.50;;;;;;4990599;28;20094;-43
2023/08/02 02:27:07;;;;;;;6.72;2.67;;;21.90;72.40;;;;;;4992083;28;20062;-47
2023/08/02 02:29:33;;;;;;;6.30;2.55;;;21.90;72.50;;;;;;4996269;28;20030;-46
2023/08/02 02:31:59;;;;;;;7.15;2.88;;;21.90;72.40;;;;;;4996124;28;20393;-45
2023/08/02 02:34:25;;;;;;;5.03;2.83;;;21.90;72.50;;;;;;4996007;28;20034;-44
2023/08/02 02:36:50;;;;;;;5.97;2.60;;;21.90;71.90;;;;;;4995758;28;20022;-44
2023/08/02 02:39:17;;;;;;;5.72;2.38;;;21.90;71.90;;;;;;4996031;28;20057;-47
2023/08/02 02:41:43;;;;;;;5.63;2.80;;;21.90;72.20;;;;;;4995986;28;20034;-46
2023/08/02 02:44:09;;;;;;;6.82;2.70;;;21.90;72.80;;;;;;4978592;28;20033;-42
2023/08/02 02:46:35;;;;;;;6.72;2.63;;;21.90;72.10;;;;;;4995683;28;20022;-46
2023/08/02 02:49:01;;;;;;;3.80;2.22;;;21.90;72.00;;;;;;4995721;28;20352;-46
2023/08/02 02:51:26;;;;;;;5.90;2.58;;;21.90;71.80;;;;;;4978393;28;20049;-47
2023/08/02 02:53:52;;;;;;;6.00;2.60;;;21.90;71.80;;;;;;4978491;28;20033;-47
2023/08/02 02:56:18;;;;;;;5.63;2.47;;;21.90;71.80;;;;;;4978047;28;20033;-48
2023/08/02 02:58:44;;;;;;;4.82;2.60;;;21.90;71.90;;;;;;4978258;28;20112;-45
2023/08/02 03:01:10;;;;;;;5.63;2.47;;;21.90;71.70;;;;;;4995660;28;20502;-44
2023/08/02 03:03:36;;;;;;;6.00;2.50;;;21.90;71.80;;;;;;4995426;28;20037;-46
2023/08/02 03:06:01;;;;;;;3.53;2.25;;;21.90;71.70;;;;;;4995212;28;20398;-48
2023/08/02 03:08:27;;;;;;;6.25;2.55;;;21.90;71.80;;;;;;4995308;28;20033;-46
2023/08/02 03:10:53;;;;;;;5.43;2.50;;;21.90;71.80;;;;;;4995447;28;20030;-43
2023/08/02 03:13:19;;;;;;;5.25;2.60;;;21.90;71.80;;;;;;4996258;28;20034;-50
2023/08/02 03:15:44;;;;;;;4.88;2.65;;;21.90;71.70;;;;;;4995237;28;20030;-46
2023/08/02 03:18:10;;;;;;;9.35;2.70;;;21.90;71.50;;;;;;4995130;28;20026;-48
2023/08/02 03:20:39;;;;;;;7.30;2.45;;;21.90;71.60;;;;;;4995255;28;20401;-43
2023/08/02 03:23:05;;;;;;;4.95;2.47;;;21.90;71.80;;;;;;4995231;28;20041;-43
2023/08/02 03:25:31;;;;;;;4.60;2.63;;;21.90;71.60;;;;;;4994902;28;20050;-45
2023/08/02 03:27:57;;;;;;;7.90;2.70;;;21.90;71.60;;;;;;5040514;23;20504;-53
2023/08/02 03:30:23;;;;;;;3.83;2.58;;;21.90;71.80;;;;;;5014244;28;20440;-49
2023/08/02 03:32:49;;;;;;;6.55;2.65;;;21.90;71.50;;;;;;5014621;28;20025;-45
2023/08/02 03:35:14;;;;;;;11.18;2.67;;;21.90;71.70;;;;;;5014590;28;20394;-45
2023/08/02 03:37:40;;;;;;;5.82;2.47;;;21.90;72.00;;;;;;5014467;28;20058;-46
2023/08/02 03:40:07;;;;;;;6.93;2.75;;;21.90;71.80;;;;;;5014463;28;20561;-51
2023/08/02 03:42:32;;;;;;;6.88;2.15;;;21.90;71.60;;;;;;5014936;28;20390;-53
2023/08/02 03:44:58;;;;;;;5.95;2.30;;;21.90;71.60;;;;;;5014141;28;20113;-51
2023/08/02 03:47:24;;;;;;;5.32;2.58;;;21.90;71.60;;;;;;5014233;28;20023;-52
2023/08/02 03:49:50;;;;;;;5.50;2.72;;;21.90;71.90;;;;;;5014217;28;20034;-47
2023/08/02 03:52:16;;;;;;;5.10;2.38;;;21.90;71.70;;;;;;5014296;28;20060;-51
2023/08/02 03:54:41;;;;;;;6.00;2.30;;;21.90;71.50;;;;;;5013932;28;20021;-50
2023/08/02 03:57:07;;;;;;;7.80;2.55;;;21.90;71.80;;;;;;5014212;28;20025;-51
2023/08/02 03:59:33;;;;;;;4.18;2.47;;;21.90;71.40;;;;;;5014088;28;20026;-46
2023/08/02 04:01:59;;;;;;;7.28;2.47;;;21.90;71.50;;;;;;5014144;28;20080;-45
2023/08/02 04:04:25;;;;;;;5.78;2.30;;;21.90;71.20;;;;;;5013640;28;20033;-51
2023/08/02 04:06:51;;;;;;;4.95;2.72;;;21.90;71.20;;;;;;5013870;28;20394;-51
2023/08/02 04:09:17;;;;;;;7.15;2.80;;;21.90;71.00;;;;;;5013962;28;20029;-46
2023/08/02 04:11:42;;;;;;;10.35;2.63;;;21.90;71.70;;;;;;5013816;28;20074;-48
2023/08/02 04:14:08;;;;;;;5.45;2.50;;;21.90;71.50;;;;;;5013941;28;20032;-46
2023/08/02 04:16:34;;;;;;;5.63;2.60;;;21.90;72.40;;;;;;5013471;28;20108;-49
2023/08/02 04:18:59;;;;;;;6.35;2.80;;;22.00;72.50;;;;;;4996393;28;20041;-49
2023/08/02 04:21:25;;;;;;;8.57;3.17;;;22.00;72.00;;;;;;5013700;28;20026;-45
2023/08/02 04:23:51;;;;;;;10.55;3.10;;;22.00;73.70;;;;;;5013742;28;20026;-49
2023/08/02 04:26:17;;;;;;;9.88;3.13;;;22.10;72.30;;;;;;5013354;28;20032;-50
2023/08/02 04:28:45;;;;;;;11.10;3.28;;;22.10;74.10;;;;;;5013267;28;20036;-49
2023/08/02 04:31:12;;;;;;;7.63;3.28;;;22.10;72.80;;;;;;5013514;28;20097;-51
2023/08/02 04:33:38;;;;;;;8.48;3.90;;;22.20;73.20;;;;;;5013478;28;20053;-48
2023/08/02 04:36:04;;;;;;;11.23;4.22;;;22.20;73.20;;;;;;5014461;28;20453;-48
2023/08/02 04:38:30;;;;;;;7.38;3.75;;;22.10;73.40;;;;;;5017416;28;20038;-51
2023/08/02 04:40:57;;;;;;;7.63;3.60;;;22.10;73.70;;;;;;5011049;28;20044;-53
2023/08/02 04:43:22;;;;;;;9.02;3.95;;;22.10;73.80;;;;;;5017783;28;20034;-50
2023/08/02 04:45:48;;;;;;;9.60;3.80;;;22.10;73.80;;;;;;5028247;28;20056;-47
2023/08/02 04:48:14;;;;;;;6.10;3.10;;;22.00;73.90;;;;;;5023015;28;20088;-48
2023/08/02 04:50:40;;;;;;;8.18;3.75;;;22.00;73.70;;;;;;5011064;28;20034;-50
2023/08/02 04:53:06;;;;;;;10.32;3.30;;;22.00;74.00;;;;;;5016165;28;20033;-46
2023/08/02 04:55:44;;;;;;;7.00;3.03;;;22.00;73.90;;;;;;5012792;28;20026;-48
2023/08/02 04:58:10;;;;;;;15.68;3.30;;;22.10;73.90;;;;;;5013227;28;20433;-47
2023/08/02 05:00:36;;;;;;;21.45;3.13;;;22.10;73.80;;;;;;5012937;28;20505;-51
2023/08/02 05:03:02;;;;;;;16.02;3.58;;;22.10;74.00;;;;;;5012972;28;20030;-49
2023/08/02 05:05:27;;;;;;;11.65;3.13;;;22.00;74.00;;;;;;5012823;28;20026;-51
2023/08/02 05:07:53;;;;;;;10.98;3.25;;;22.10;74.10;;;;;;5012678;28;20034;-50
2023/08/02 05:10:19;;;;;;;14.15;3.72;;;22.00;74.00;;;;;;5006885;28;20171;-48
2023/08/02 05:12:45;;;;;;;16.00;3.50;;;22.10;74.10;;;;;;5005450;28;20037;-47
2023/08/02 05:15:11;;;;;;;11.90;3.85;;;22.00;73.80;;;;;;5000091;28;20143;-47
2023/08/02 05:17:37;;;;;;;14.10;3.35;;;22.00;73.70;;;;;;4996825;28;20025;-46
2023/08/02 05:20:03;;;;;;;9.50;3.58;;;22.00;73.80;;;;;;5001117;28;20026;-47
2023/08/02 05:22:31;;;;;;;11.25;3.25;;;22.10;74.20;;;;;;4998670;28;20080;-47
2023/08/02 05:24:56;;;;;;;10.35;3.60;;;22.10;73.60;;;;;;4995477;28;20049;-47
2023/08/02 05:27:22;;;;;;;13.52;4.10;;;22.10;73.50;;;;;;5000405;28;20025;-46
2023/08/02 05:29:51;;;;;;;12.65;3.60;;;22.10;73.90;;;;;;4998234;28;20037;-50
2023/08/02 05:32:17;;;;;;;10.95;3.72;;;22.10;73.50;;;;;;4996227;28;20034;-48
2023/08/02 05:34:43;;;;;;;7.43;3.45;;;22.10;73.70;;;;;;4998422;28;20022;-46
2023/08/02 05:37:08;;;;;;;14.95;4.22;;;22.20;73.60;;;;;;4999921;28;20029;-49
2023/08/02 05:39:34;;;;;;;10.00;3.22;;;22.20;73.50;;;;;;4998802;28;20019;-49
2023/08/02 05:42:00;;;;;;;26.08;3.92;;;22.20;73.60;;;;;;4998826;28;20478;-45
2023/08/02 05:44:26;;;;;;;14.43;4.43;;;22.20;73.30;;;;;;4999769;28;20026;-47
2023/08/02 05:46:51;;;;;;;18.70;4.50;;;22.20;73.10;;;;;;4996835;28;20025;-49
2023/08/02 05:49:17;;;;;;;21.52;5.78;;;22.20;73.30;;;;;;4998955;28;20509;-53
2023/08/02 05:51:43;;;;;;;19.92;5.80;;;22.20;74.30;;;;;;5002130;28;20104;-50
2023/08/02 05:54:09;;;;;;;18.35;5.28;;;22.20;74.40;;;;;;4999223;28;20038;-52
2023/08/02 05:56:34;;;;;;;21.98;5.43;;;22.30;74.20;;;;;;4997654;28;20353;-48
2023/08/02 05:59:00;;;;;;;17.65;4.80;;;22.30;73.80;;;;;;4997623;28;20483;-48
2023/08/02 06:01:26;;;;;;;18.10;6.00;;;22.30;74.30;;;;;;4997107;28;20034;-47
2023/08/02 06:03:52;;;;;;;27.40;6.45;;;22.30;74.50;;;;;;4994507;28;20125;-48
2023/08/02 06:06:17;;;;;;;24.50;5.15;;;22.30;74.20;;;;;;4980192;28;20034;-47
2023/08/02 06:08:45;;;;;;;26.25;6.07;;;22.30;74.20;;;;;;4997740;28;20271;-47
2023/08/02 06:11:12;;;;;;;16.70;4.75;;;22.30;74.40;;;;;;4997784;28;20026;-50
2023/08/02 06:13:38;;;;;;;24.45;6.18;;;22.40;73.40;;;;;;4976759;28;20104;-52
2023/08/02 06:16:04;;;;;;;26.77;5.93;;;22.30;73.70;;;;;;4989096;28;20053;-47
2023/08/02 06:18:30;;;;;;;19.50;5.28;;;22.30;73.70;;;;;;4979727;28;20037;-52
2023/08/02 06:20:56;;;;;;;24.83;5.82;;;22.30;73.20;;;;;;4997873;28;20034;-50
2023/08/02 06:23:21;;;;;;;20.42;5.70;;;22.30;73.50;;;;;;5001061;28;20053;-52
2023/08/02 06:25:47;;;;;;;18.67;4.60;;;22.20;71.80;;;;;;4997295;28;20066;-49
2023/08/02 06:28:13;;;;;;;15.27;4.68;;;22.20;71.10;;;;;;5000428;28;20025;-46
2023/08/02 06:30:39;;;;;;;9.82;4.43;;;22.20;71.00;;;;;;4993301;28;20022;-49
2023/08/02 06:33:05;;;;;;;20.42;4.75;;;22.20;71.30;;;;;;5000851;28;20041;-49
2023/08/02 06:35:31;;;;;;;12.30;4.30;;;22.20;71.20;;;;;;4998185;28;20148;-52
2023/08/02 06:37:56;;;;;;;15.63;4.20;;;22.20;71.40;;;;;;4994318;28;20029;-48
2023/08/02 06:40:22;;;;;;;16.15;5.00;;;22.20;71.40;;;;;;4999498;28;20034;-49
2023/08/02 06:42:48;;;;;;;13.52;4.80;;;22.20;71.20;;;;;;4997730;28;20037;-49
2023/08/02 06:45:14;;;;;;;11.35;4.40;;;22.20;71.00;;;;;;5000317;28;20026;-49
2023/08/02 06:47:39;;;;;;;19.35;5.07;;;22.20;70.80;;;;;;4975649;28;20078;-46
2023/08/02 06:50:05;;;;;;;15.30;5.03;;;22.20;71.20;;;;;;5001034;28;20030;-48
2023/08/02 06:52:31;;;;;;;12.73;5.00;;;22.20;71.20;;;;;;4998317;28;20088;-47
2023/08/02 06:54:57;;;;;;;18.23;5.80;;;22.20;71.10;;;;;;4997224;28;20026;-46
2023/08/02 06:57:24;;;;;;;20.02;5.72;;;22.20;71.20;;;;;;4999428;28;20026;-47
2023/08/02 06:59:50;;;;;;;17.00;5.35;;;22.20;71.20;;;;;;4995795;28;20045;-46
2023/08/02 07:02:16;;;;;;;14.13;5.15;;;22.20;71.30;;;;;;5000312;28;20065;-47
2023/08/02 07:04:42;;;;;;;14.63;5.25;;;22.20;71.10;;;;;;4994687;28;20053;-47
2023/08/02 07:07:08;;;;;;;16.10;5.70;;;22.20;71.60;;;;;;4983192;28;20080;-46
2023/08/02 07:09:33;;;;;;;14.52;5.43;;;22.20;71.20;;;;;;4993898;28;20080;-46
2023/08/02 07:11:59;;;;;;;15.98;5.35;;;22.20;71.10;;;;;;5000920;28;20030;-46
2023/08/02 07:14:25;;;;;;;14.93;5.50;;;22.20;71.20;;;;;;4996467;28;20057;-46
2023/08/02 07:16:51;;;;;;;16.30;4.90;;;22.20;71.20;;;;;;5004342;28;20022;-49
2023/08/02 07:19:17;;;;;;;15.23;5.80;;;22.20;71.20;;;;;;4979423;28;20030;-49
2023/08/02 07:21:42;;;;;;;16.33;5.80;;;22.30;71.30;;;;;;5004943;28;20045;-48
2023/08/02 07:24:08;;;;;;;14.88;5.53;;;22.30;71.20;;;;;;4997077;28;20466;-46
2023/08/02 07:26:34;;;;;;;14.55;5.18;;;22.30;71.10;;;;;;5000394;28;20037;-50
2023/08/02 07:29:00;;;;;;;11.02;5.13;;;22.30;71.10;;;;;;4992600;28;20046;-46
2023/08/02 07:31:26;;;;;;;16.02;5.75;;;22.30;71.10;;;;;;5002536;28;20077;-47
2023/08/02 07:33:51;;;;;;;15.07;6.05;;;22.30;71.40;;;;;;5003941;28;20397;-50
2023/08/02 07:36:19;;;;;;;27.77;6.55;;;22.30;72.60;;;;;;5003206;28;20033;-49
2023/08/02 07:38:45;;;;;;;21.73;6.57;;;22.40;72.00;;;;;;4995923;28;20034;-51
2023/08/02 07:41:11;;;;;;;25.33;6.30;;;22.30;72.60;;;;;;5000798;28;20083;-52
2023/08/02 07:43:37;;;;;;;24.05;6.65;;;22.40;72.80;;;;;;4995429;28;20050;-51
2023/08/02 07:46:03;;;;;;;27.52;6.93;;;22.40;72.90;;;;;;4998863;28;20037;-50
2023/08/02 07:48:30;;;;;;;22.10;6.18;;;22.40;73.00;;;;;;5001050;28;20041;-50
2023/08/02 07:50:55;;;;;;;20.40;6.28;;;22.40;72.90;;;;;;4997652;28;20073;-49
2023/08/02 07:53:21;;;;;;;18.10;5.63;;;22.40;72.80;;;;;;5002059;28;20057;-47
2023/08/02 07:55:48;;;;;;;22.13;6.25;;;22.40;71.70;;;;;;5000729;28;20034;-50
2023/08/02 07:58:16;;;;;;;17.10;5.75;;;22.40;72.40;;;;;;5002469;28;20483;-47
2023/08/02 08:00:42;;;;;;;20.45;5.50;;;22.40;72.40;;;;;;4995756;28;20026;-47
2023/08/02 08:03:07;;;;;;;23.30;5.80;;;22.40;72.20;;;;;;5003776;28;20084;-48
2023/08/02 08:05:33;;;;;;;15.85;6.28;;;22.40;72.40;;;;;;5000129;28;20033;-47
2023/08/02 08:07:59;;;;;;;16.45;5.50;;;22.40;72.20;;;;;;5001949;28;20251;-47
2023/08/02 08:10:26;;;;;;;17.95;5.93;;;22.40;72.00;;;;;;4984277;28;20022;-46
2023/08/02 08:12:52;;;;;;;17.48;5.57;;;22.40;71.90;;;;;;5000638;28;20441;-49
2023/08/02 08:15:18;;;;;;;19.25;5.57;;;22.50;71.90;;;;;;4999072;28;20033;-46
2023/08/02 08:17:43;;;;;;;17.48;5.22;;;22.50;72.00;;;;;;4999135;28;20030;-46
2023/08/02 08:20:10;;;;;;;14.98;5.47;;;22.50;72.10;;;;;;5003496;28;20195;-53
2023/08/02 08:22:35;;;;;;;24.08;5.45;;;22.50;72.30;;;;;;4998267;28;20087;-51
2023/08/02 08:25:01;;;;;;;17.00;5.60;;;22.50;72.00;;;;;;5002107;28;20034;-53
2023/08/02 08:27:27;;;;;;;19.55;6.07;;;22.50;72.40;;;;;;5001730;28;20038;-52
2023/08/02 08:29:53;;;;;;;18.20;5.40;;;22.50;72.20;;;;;;5002648;28;20081;-55
2023/08/02 08:32:20;;;;;;;18.23;6.05;;;22.50;72.30;;;;;;4997398;28;20057;-55
2023/08/02 08:34:45;;;;;;;18.80;6.40;;;22.50;72.30;;;;;;5002674;28;20136;-52
2023/08/02 08:37:11;;;;;;;20.42;5.90;;;22.50;72.10;;;;;;4997160;28;20510;-55
2023/08/02 08:39:38;;;;;;;16.65;5.85;;;22.50;71.90;;;;;;5010566;28;20453;-55
2023/08/02 08:42:07;;;;;;;15.00;5.78;;;22.50;72.00;;;;;;4997865;28;20037;-51
2023/08/02 08:44:37;;;;;;;12.20;5.40;;;22.40;72.40;;;;;;5002139;28;20030;-56
2023/08/02 08:47:07;;;;;;;19.67;5.32;;;22.50;72.30;;;;;;4997625;28;20068;-54
2023/08/02 08:49:33;;;;;;;18.23;5.72;;;22.40;72.60;;;;;;4999299;28;20029;-53
2023/08/02 08:52:11;;;;;;;17.38;5.15;;;22.40;72.30;;;;;;4992528;28;20030;-51
2023/08/02 08:54:38;;;;;;;14.02;5.55;;;22.40;73.00;;;;;;4994191;28;20399;-52
2023/08/02 08:57:07;;;;;;;19.60;5.40;;;22.40;72.90;;;;;;4996808;28;20306;-54
2023/08/02 08:59:35;;;;;;;15.50;5.40;;;22.40;72.90;;;;;;4999498;28;20045;-54
2023/08/02 09:02:01;;;;;;;14.98;5.35;;;22.40;73.10;;;;;;4999131;28;20037;-53
2023/08/02 09:04:29;;;;;;;14.40;5.07;;;22.40;72.70;;;;;;5001253;28;20026;-52
2023/08/02 09:06:55;;;;;;;12.98;5.05;;;22.40;72.90;;;;;;4996986;28;20034;-56
2023/08/02 09:09:21;;;;;;;17.30;5.57;;;22.40;72.70;;;;;;4998622;28;20504;-48
2023/08/02 09:11:47;;;;;;;14.55;5.18;;;22.40;72.90;;;;;;4991239;28;20434;-49
2023/08/02 09:14:17;;;;;;;12.13;4.70;;;22.40;73.20;;;;;;4998991;28;20105;-50
2023/08/02 09:16:59;;;;;;;17.42;5.55;;;22.40;72.40;;;;;;4999016;28;20033;-53
2023/08/02 09:19:37;;;;;;;13.13;5.22;;;22.40;72.90;;;;;;4998757;28;20505;-51
2023/08/02 09:22:14;;;;;;;12.32;5.07;;;22.40;72.80;;;;;;5005373;28;20445;-48
2023/08/02 09:24:43;;;;;;;17.58;5.65;;;22.40;73.10;;;;;;4994454;28;20038;-52
2023/08/02 09:27:15;;;;;;;17.85;5.75;;;22.40;73.30;;;;;;5001996;28;20498;-51
2023/08/02 09:29:46;;;;;;;14.82;4.95;;;22.40;73.60;;;;;;4994522;28;20046;-49
2023/08/02 09:32:12;;;;;;;13.38;5.00;;;22.30;73.10;;;;;;5002198;28;20049;-51
2023/08/02 09:34:45;;;;;;;13.10;5.38;;;22.30;72.80;;;;;;4993909;28;20036;-53
2023/08/02 09:37:12;;;;;;;11.80;5.03;;;22.30;73.40;;;;;;5001609;28;20030;-50
2023/08/02 09:39:39;;;;;;;13.75;5.20;;;22.30;72.50;;;;;;4993803;28;20029;-50
2023/08/02 09:42:13;;;;;;;12.23;4.97;;;22.30;72.50;;;;;;5001836;28;20214;-51
2023/08/02 09:44:41;;;;;;;15.45;5.47;;;22.30;72.40;;;;;;4998216;28;20571;-50
2023/08/02 09:47:12;;;;;;;13.43;4.97;;;22.30;72.30;;;;;;5004063;28;20250;-51
2023/08/02 09:49:39;;;;;;;14.80;5.30;;;22.30;73.50;;;;;;4993666;28;20038;-50
2023/08/02 09:52:07;;;;;;;13.90;4.75;;;22.30;72.30;;;;;;5001861;28;20018;-51
2023/08/02 09:54:32;;;;;;;15.77;5.57;;;22.30;73.50;;;;;;4998641;28;20027;-52
2023/08/02 09:57:01;;;;;;;16.50;5.07;;;22.30;72.80;;;;;;5002331;28;20029;-48
2023/08/02 09:59:29;;;;;;;20.80;6.63;;;22.30;72.90;;;;;;4999372;28;20450;-52
2023/08/02 10:01:56;;;;;;;17.10;5.43;;;22.30;73.30;;;;;;5001101;28;20109;-52
2023/08/02 10:04:24;;;;;;;11.85;5.38;;;22.40;72.20;;;;;;5000384;28;20469;-51
2023/08/02 10:06:57;;;;;;;13.18;5.65;;;22.40;72.10;;;;;;5000245;28;20058;-50
2023/08/02 10:09:30;;;;;;;18.55;5.05;;;22.40;72.10;;;;;;5000220;28;20026;-51
2023/08/02 10:11:58;;;;;;;12.60;5.03;;;22.40;71.80;;;;;;4995890;28;20017;-50
2023/08/02 10:14:24;;;;;;;13.48;6.45;;;22.40;72.00;;;;;;4999856;28;20033;-53
2023/08/02 10:16:51;;;;;;;123.40;54.85;;;22.40;72.00;;;;;;4994528;28;20061;-52
2023/08/02 10:19:18;;;;;;;271.67;130.43;;;22.50;72.50;;;;;;5000643;28;20084;-53
2023/08/02 10:21:44;;;;;;;194.15;96.80;;;22.50;72.30;;;;;;4998086;28;20037;-51
2023/08/02 10:24:12;;;;;;;216.55;104.82;;;22.50;72.00;;;;;;5001314;28;20387;-48
2023/08/02 10:26:38;;;;;;;159.88;79.38;;;22.50;72.10;;;;;;5000830;28;20030;-50
2023/08/02 10:29:06;;;;;;;160.75;77.65;;;22.50;72.10;;;;;;5000773;28;20037;-51
2023/08/02 10:31:32;;;;;;;179.55;91.30;;;22.50;72.20;;;;;;4998555;28;21143;-49
2023/08/02 10:33:58;;;;;;;197.85;99.90;;;22.50;72.30;;;;;;4999804;28;20029;-55
2023/08/02 10:36:24;;;;;;;176.85;85.35;;;22.50;72.20;;;;;;4999244;28;20375;-49
2023/08/02 10:38:54;;;;;;;178.68;86.30;;;22.50;72.30;;;;;;4998193;28;20524;-48
2023/08/02 10:41:25;;;;;;;168.55;85.10;;;22.50;72.10;;;;;;4982313;28;20065;-51
2023/08/02 10:43:54;;;;;;;158.52;82.95;;;22.50;72.30;;;;;;4998324;28;20034;-49
2023/08/02 10:46:32;;;;;;;160.52;80.10;;;22.50;72.20;;;;;;4999854;28;20072;-52
2023/08/02 10:49:10;;;;;;;165.70;79.50;;;22.50;72.30;;;;;;5001457;28;20033;-48
2023/08/02 10:51:39;;;;;;;166.60;79.00;;;22.50;72.30;;;;;;5001630;28;20042;-53
2023/08/02 10:54:22;;;;;;;148.20;75.15;;;22.50;72.20;;;;;;5003355;28;20022;-49
2023/08/02 10:56:58;;;;;;;153.68;73.22;;;22.50;72.50;;;;;;4998027;28;20044;-51
2023/08/02 10:59:24;;;;;;;137.98;70.55;;;22.40;72.30;;;;;;5013424;28;20108;-50
2023/08/02 11:02:00;;;;;;;136.48;68.30;;;22.40;72.30;;;;;;5003599;28;20120;-52
2023/08/02 11:04:26;;;;;;;141.20;68.70;;;22.40;72.50;;;;;;5002586;28;20056;-49
2023/08/02 11:06:52;;;;;;;132.50;66.65;;;22.40;72.50;;;;;;5001016;28;20042;-50
2023/08/02 11:09:38;;;;;;;133.93;66.35;;;22.40;72.90;;;;;;5003095;28;20033;-53
2023/08/02 11:12:16;;;;;;;127.80;62.40;;;22.40;72.60;;;;;;4999926;28;20038;-48
2023/08/02 11:14:47;;;;;;;119.80;64.18;;;22.40;72.50;;;;;;4997234;28;20065;-55
2023/08/02 11:17:21;;;;;;;124.43;63.90;;;22.40;72.50;;;;;;5004188;28;20022;-50
2023/08/02 11:19:51;;;;;;;115.88;59.53;;;22.40;72.50;;;;;;5001217;28;20045;-54
2023/08/02 11:22:18;;;;;;;128.45;62.92;;;22.40;72.40;;;;;;5002070;28;20442;-55
2023/08/02 11:24:45;;;;;;;108.45;57.97;;;22.40;72.40;;;;;;5000667;28;20031;-50
2023/08/02 11:27:22;;;;;;;116.43;58.35;;;22.40;72.30;;;;;;5001198;28;20027;-54
2023/08/02 11:30:01;;;;;;;113.45;56.17;;;22.40;72.30;;;;;;4996996;28;20092;-52
2023/08/02 11:32:27;;;;;;;110.20;57.38;;;22.40;72.40;;;;;;4983919;28;20046;-51
2023/08/02 11:34:54;;;;;;;111.20;56.65;;;22.40;72.50;;;;;;5000341;28;20045;-51
2023/08/02 11:37:20;;;;;;;111.63;56.25;;;22.40;72.40;;;;;;5000972;28;20562;-51
2023/08/02 11:39:53;;;;;;;110.70;55.38;;;22.40;72.40;;;;;;5000454;28;20030;-51
2023/08/02 11:42:19;;;;;;;107.35;56.13;;;22.40;72.30;;;;;;5000620;28;20041;-47
2023/08/02 11:44:45;;;;;;;101.80;52.65;;;22.40;72.40;;;;;;5000354;28;20493;-50
2023/08/02 11:47:11;;;;;;;107.13;55.63;;;22.40;72.30;;;;;;5000383;28;20054;-48
2023/08/02 11:49:53;;;;;;;117.80;54.40;;;22.40;72.40;;;;;;5002887;28;20113;-50
2023/08/02 11:52:30;;;;;;;97.57;52.15;;;22.40;72.60;;;;;;5002995;28;20033;-47
2023/08/02 11:54:56;;;;;;;101.78;51.38;;;22.40;72.40;;;;;;5003763;28;20088;-50
2023/08/02 11:57:24;;;;;;;91.80;49.33;;;22.40;72.30;;;;;;5002850;28;20030;-53
2023/08/02 11:59:51;;;;;;;100.25;52.40;;;22.40;72.20;;;;;;5001344;28;20022;-51
2023/08/02 12:02:35;;;;;;;92.30;49.53;;;22.40;72.30;;;;;;5003242;28;20026;-47
2023/08/02 12:05:05;;;;;;;91.32;48.08;;;22.40;72.20;;;;;;4998498;28;20034;-52
2023/08/02 12:07:32;;;;;;;;;;;22.40;72.20;;;;;;5002358;28;20061;-47
2023/08/02 12:09:57;;;;;;;88.97;46.38;;;22.40;72.30;;;;;;5003531;28;20427;-49
2023/08/02 12:12:31;;;;;;;90.78;47.88;;;22.40;72.30;;;;;;5001155;28;20030;-51
2023/08/02 12:14:58;;;;;;;98.80;48.42;;;22.50;72.20;;;;;;4997310;28;20026;-52
2023/08/02 12:17:24;;;;;;;91.28;47.80;;;22.40;72.30;;;;;;5001825;28;20033;-53
2023/08/02 12:19:51;;;;;;;90.60;47.60;;;22.40;72.10;;;;;;4998101;28;20031;-51
2023/08/02 12:22:19;;;;;;;90.50;45.80;;;22.40;72.30;;;;;;4999707;28;20034;-54
2023/08/02 12:25:02;;;;;;;88.13;47.13;;;22.40;72.20;;;;;;5002834;28;20030;-52
2023/08/02 12:27:29;;;;;;;85.38;45.90;;;22.40;72.20;;;;;;5000980;28;20041;-49
2023/08/02 12:30:10;;;;;;;79.47;44.05;;;22.50;72.20;;;;;;4999759;28;20501;-55
2023/08/02 12:32:36;;;;;;;78.15;43.03;;;22.50;72.20;;;;;;5001979;28;20026;-47
2023/08/02 12:35:06;;;;;;;88.63;42.75;;;22.40;72.10;;;;;;5002986;28;20029;-49
2023/08/02 12:37:33;;;;;;;75.47;42.90;;;22.50;72.20;;;;;;4982434;28;20025;-54
2023/08/02 12:39:58;;;;;;;75.47;41.38;;;22.50;72.20;;;;;;5001050;28;20353;-48